createdAt,value
2018-09-27T00:02:04.995Z,2.50
2018-09-27T00:07:22.893Z,3.20
2018-09-27T00:10:00.659Z,3.27
2018-09-27T00:12:45.452Z,3.47
2018-09-27T00:15:25.074Z,3.47
2018-09-27T00:18:05.765Z,3.87
2018-09-27T00:23:20.642Z,3.67
2018-09-27T00:28:50.648Z,4.40
2018-09-27T00:31:27.680Z,3.00
2018-09-27T00:34:06.449Z,3.07
2018-09-27T00:36:46.099Z,2.07
2018-09-27T00:45:00.881Z,3.20
2018-09-27T00:47:39.213Z,3.57
2018-09-27T00:50:19.165Z,3.20
2018-09-27T00:52:58.408Z,2.53
2018-09-27T00:55:31.992Z,3.37
2018-09-27T01:00:54.205Z,3.87
2018-09-27T01:03:33.530Z,2.70
2018-09-27T01:06:07.907Z,2.93
2018-09-27T01:08:48.176Z,2.10
2018-09-27T01:11:27.924Z,2.70
2018-09-27T01:17:27.622Z,3.70
2018-09-27T01:20:15.014Z,2.80
2018-09-27T01:23:02.917Z,3.57
2018-09-27T01:25:47.574Z,4.00
2018-09-27T01:34:16.040Z,4.07
2018-09-27T01:36:56.539Z,2.70
2018-09-27T01:42:14.103Z,2.80
2018-09-27T01:45:04.057Z,3.13
2018-09-27T01:47:46.570Z,3.17
2018-09-27T01:50:20.672Z,3.77
2018-09-27T01:52:56.077Z,4.10
2018-09-27T01:55:31.035Z,3.63
2018-09-27T01:58:04.247Z,3.30
2018-09-27T02:00:41.644Z,2.30
2018-09-27T02:03:19.249Z,3.20
2018-09-27T02:05:53.053Z,3.80
2018-09-27T02:08:27.136Z,2.70
2018-09-27T02:11:01.591Z,2.83
2018-09-27T02:13:36.340Z,3.17
2018-09-27T02:16:10.068Z,4.33
2018-09-27T02:18:46.521Z,3.83
2018-09-27T02:21:19.743Z,4.30
2018-09-27T02:23:52.878Z,2.47
2018-09-27T02:26:29.723Z,3.53
2018-09-27T02:29:03.051Z,3.63
2018-09-27T02:31:37.357Z,3.57
2018-09-27T02:34:10.655Z,3.33
2018-09-27T02:36:44.389Z,2.77
2018-09-27T02:39:18.038Z,3.03
2018-09-27T02:41:50.976Z,3.47
2018-09-27T02:44:24.160Z,2.80
2018-09-27T02:46:57.966Z,3.23
2018-09-27T02:49:30.860Z,2.80
2018-09-27T02:52:04.372Z,3.60
2018-09-27T02:54:37.532Z,3.63
2018-09-27T02:57:10.878Z,3.23
2018-09-27T02:59:43.941Z,4.10
2018-09-27T03:02:17.445Z,3.60
2018-09-27T03:04:50.908Z,3.23
2018-09-27T03:07:23.768Z,5.17
2018-09-27T03:09:58.349Z,3.80
2018-09-27T03:12:32.189Z,4.07
2018-09-27T03:15:06.299Z,3.10
2018-09-27T03:17:41.070Z,3.20
2018-09-27T03:20:14.399Z,4.93
2018-09-27T03:22:47.362Z,3.83
2018-09-27T03:25:21.476Z,3.00
2018-09-27T03:27:55.397Z,3.70
2018-09-27T03:30:28.400Z,2.27
2018-09-27T03:33:01.638Z,3.47
2018-09-27T03:35:34.822Z,2.97
2018-09-27T03:38:08.766Z,3.30
2018-09-27T03:40:43.311Z,4.00
2018-09-27T03:43:16.304Z,3.33
2018-09-27T03:45:49.629Z,3.83
2018-09-27T03:48:22.817Z,4.23
2018-09-27T03:50:56.807Z,3.70
2018-09-27T03:53:29.872Z,4.40
2018-09-27T03:56:06.513Z,3.30
2018-09-27T03:58:39.569Z,3.57
2018-09-27T04:01:13.436Z,4.83
2018-09-27T04:03:46.275Z,3.93
2018-09-27T04:06:20.897Z,3.07
2018-09-27T04:08:53.934Z,2.77
2018-09-27T04:11:27.251Z,2.87
2018-09-27T04:14:00.787Z,3.57
2018-09-27T04:16:33.596Z,5.33
2018-09-27T04:19:06.502Z,3.00
2018-09-27T04:21:40.488Z,3.70
2018-09-27T04:24:13.920Z,3.83
2018-09-27T04:26:46.700Z,3.03
2018-09-27T04:29:19.640Z,4.17
2018-09-27T04:31:52.554Z,4.30
2018-09-27T04:34:25.568Z,3.87
2018-09-27T04:36:58.457Z,4.53
2018-09-27T04:39:31.201Z,4.50
2018-09-27T04:42:04.251Z,3.40
2018-09-27T04:44:37.229Z,3.93
2018-09-27T04:47:09.940Z,3.10
2018-09-27T04:49:42.671Z,3.50
2018-09-27T04:52:15.338Z,3.37
2018-09-27T04:54:48.023Z,3.67
2018-09-27T04:57:20.951Z,3.93
2018-09-27T04:59:53.593Z,4.23
2018-09-27T05:02:26.370Z,3.40
2018-09-27T05:04:59.026Z,3.37
2018-09-27T05:07:31.745Z,2.97
2018-09-27T05:10:05.012Z,3.70
2018-09-27T05:12:37.790Z,2.90
2018-09-27T05:15:10.533Z,3.47
2018-09-27T05:17:43.216Z,3.57
2018-09-27T05:20:15.946Z,3.57
2018-09-27T05:22:48.736Z,3.57
2018-09-27T05:25:22.268Z,3.97
2018-09-27T05:27:55.011Z,2.37
2018-09-27T05:30:27.745Z,5.40
2018-09-27T05:33:00.596Z,4.83
2018-09-27T05:35:33.375Z,3.80
2018-09-27T05:38:06.185Z,3.10
2018-09-27T05:40:39.875Z,4.23
2018-09-27T05:43:12.689Z,4.47
2018-09-27T05:45:46.125Z,5.07
2018-09-27T05:48:18.822Z,3.43
2018-09-27T05:50:51.488Z,4.70
2018-09-27T05:53:25.207Z,3.50
2018-09-27T05:55:58.156Z,4.00
2018-09-27T05:58:30.908Z,3.47
2018-09-27T06:01:03.708Z,4.13
2018-09-27T06:03:36.506Z,3.67
2018-09-27T06:06:09.352Z,3.93
2018-09-27T06:08:42.064Z,5.37
2018-09-27T06:11:14.979Z,4.13
2018-09-27T06:13:47.753Z,3.13
2018-09-27T06:16:20.542Z,3.40
2018-09-27T06:18:53.403Z,4.37
2018-09-27T06:21:27.082Z,3.47
2018-09-27T06:24:00.365Z,4.47
2018-09-27T06:26:33.131Z,3.33
2018-09-27T06:29:05.915Z,3.90
2018-09-27T06:31:38.678Z,4.00
2018-09-27T06:34:11.480Z,3.87
2018-09-27T06:36:44.217Z,3.47
2018-09-27T06:39:17.725Z,3.80
2018-09-27T06:41:50.447Z,4.90
2018-09-27T06:44:23.219Z,3.70
2018-09-27T06:46:55.985Z,3.87
2018-09-27T06:49:29.214Z,3.00
2018-09-27T06:52:02.070Z,3.70
2018-09-27T06:54:35.006Z,4.27
2018-09-27T06:57:07.769Z,2.93
2018-09-27T06:59:40.520Z,3.20
2018-09-27T07:02:13.317Z,3.53
2018-09-27T07:04:46.162Z,3.30
2018-09-27T07:07:19.115Z,2.47
2018-09-27T07:09:52.130Z,3.07
2018-09-27T07:12:25.089Z,4.00
2018-09-27T07:14:58.035Z,4.27
2018-09-27T07:17:30.856Z,4.07
2018-09-27T07:20:03.714Z,2.87
2018-09-27T07:22:36.458Z,3.47
2018-09-27T07:25:09.370Z,3.67
2018-09-27T07:27:42.182Z,3.00
2018-09-27T07:30:14.988Z,3.07
2018-09-27T07:32:47.752Z,3.13
2018-09-27T07:35:20.507Z,3.30
2018-09-27T07:37:53.280Z,4.20
2018-09-27T07:40:26.017Z,3.60
2018-09-27T07:42:58.854Z,2.70
2018-09-27T07:45:31.764Z,3.10
2018-09-27T07:48:04.515Z,3.13
2018-09-27T07:50:37.155Z,1.97
2018-09-27T07:53:09.894Z,3.00
2018-09-27T07:55:42.636Z,2.53
2018-09-27T07:58:15.647Z,3.60
2018-09-27T08:00:48.387Z,2.97
2018-09-27T08:03:21.158Z,3.33
2018-09-27T08:05:54.016Z,2.33
2018-09-27T08:08:26.799Z,2.67
2018-09-27T08:10:59.509Z,2.63
2018-09-27T08:13:32.375Z,2.10
2018-09-27T08:16:05.497Z,2.20
2018-09-27T08:18:38.433Z,2.33
2018-09-27T08:21:11.218Z,2.33
2018-09-27T08:23:43.888Z,3.90
2018-09-27T08:26:16.489Z,2.30
2018-09-27T08:28:49.133Z,2.73
2018-09-27T08:31:22.124Z,2.93
2018-09-27T08:33:54.882Z,3.13
2018-09-27T08:36:27.611Z,2.33
2018-09-27T08:39:00.332Z,3.07
2018-09-27T08:41:33.029Z,2.73
2018-09-27T08:44:05.949Z,2.80
2018-09-27T08:46:38.962Z,3.43
2018-09-27T08:49:11.744Z,3.50
2018-09-27T08:51:44.546Z,2.97
2018-09-27T08:54:17.305Z,3.07
2018-09-27T08:56:50.145Z,3.30
2018-09-27T08:59:22.843Z,4.13
2018-09-27T09:01:55.787Z,3.47
2018-09-27T09:04:28.542Z,3.93
2018-09-27T09:07:01.290Z,3.33
2018-09-27T09:09:33.992Z,3.00
2018-09-27T09:12:06.884Z,3.23
2018-09-27T09:14:39.634Z,2.80
2018-09-27T09:17:12.396Z,3.10
2018-09-27T09:19:45.196Z,3.03
2018-09-27T09:22:18.009Z,2.93
2018-09-27T09:24:50.840Z,4.43
2018-09-27T09:27:23.614Z,4.60
2018-09-27T09:29:56.354Z,3.53
2018-09-27T09:32:29.144Z,3.67
2018-09-27T09:35:02.097Z,4.03
2018-09-27T09:37:34.855Z,4.00
2018-09-27T09:40:07.725Z,4.20
2018-09-27T09:42:40.583Z,4.10
2018-09-27T09:45:13.532Z,4.30
2018-09-27T09:47:46.356Z,4.60
2018-09-27T09:50:19.092Z,5.37
2018-09-27T09:52:52.552Z,4.27
2018-09-27T09:55:25.457Z,6.37
2018-09-27T09:57:58.258Z,4.70
2018-09-27T10:00:32.293Z,3.80
2018-09-27T10:03:06.449Z,4.50
2018-09-27T10:05:39.538Z,4.20
2018-09-27T10:08:12.271Z,5.63
2018-09-27T10:10:45.150Z,5.30
2018-09-27T10:13:18.243Z,4.73
2018-09-27T10:15:51.664Z,5.47
2018-09-27T10:18:24.658Z,5.77
2018-09-27T10:20:57.821Z,5.13
2018-09-27T10:23:30.705Z,6.30
2018-09-27T10:26:03.733Z,6.13
2018-09-27T10:28:36.750Z,6.23
2018-09-27T10:31:09.847Z,5.27
2018-09-27T10:33:42.650Z,5.63
2018-09-27T10:36:15.790Z,4.93
2018-09-27T10:38:48.739Z,4.40
2018-09-27T10:41:22.296Z,5.58
2018-09-27T10:43:55.222Z,4.30
2018-09-27T10:46:27.939Z,5.07
2018-09-27T10:49:01.566Z,5.20
2018-09-27T10:51:34.313Z,4.90
2018-09-27T10:54:07.240Z,5.10
2018-09-27T10:56:40.226Z,4.62
2018-09-27T10:59:12.845Z,5.37
2018-09-27T11:01:45.724Z,5.50
2018-09-27T11:04:18.683Z,5.10
2018-09-27T11:06:51.593Z,5.17
2018-09-27T11:09:24.438Z,4.62
2018-09-27T11:11:58.672Z,5.25
2018-09-27T11:14:31.516Z,3.80
2018-09-27T11:17:05.177Z,5.70
2018-09-27T11:19:38.368Z,6.47
2018-09-27T11:22:11.291Z,6.55
2018-09-27T11:24:44.233Z,5.08
2018-09-27T11:27:17.488Z,5.85
2018-09-27T11:29:56.531Z,5.17
2018-09-27T11:32:31.805Z,5.42
2018-09-27T11:35:05.632Z,5.28
2018-09-27T11:37:38.525Z,4.17
2018-09-27T11:40:11.439Z,5.33
2018-09-27T11:42:44.253Z,6.20
2018-09-27T11:45:17.211Z,4.92
2018-09-27T11:47:50.040Z,5.50
2018-09-27T11:50:22.918Z,6.15
2018-09-27T11:52:55.673Z,5.03
2018-09-27T11:55:29.466Z,6.47
2018-09-27T11:58:02.309Z,5.08
2018-09-27T12:00:35.229Z,5.35
2018-09-27T12:03:08.148Z,4.42
2018-09-27T12:05:41.668Z,4.75
2018-09-27T12:08:14.461Z,4.15
2018-09-27T12:10:47.466Z,4.47
2018-09-27T12:13:20.529Z,5.12
2018-09-27T12:15:53.399Z,4.72
2018-09-27T12:18:26.238Z,4.87
2018-09-27T12:20:58.992Z,5.08
2018-09-27T12:23:32.468Z,4.78
2018-09-27T12:26:05.878Z,5.10
2018-09-27T12:28:38.622Z,5.00
2018-09-27T12:31:11.391Z,7.67
2018-09-27T12:33:44.196Z,4.53
2018-09-27T12:36:17.116Z,4.05
2018-09-27T12:38:50.207Z,4.90
2018-09-27T12:41:23.112Z,4.03
2018-09-27T12:43:55.859Z,5.45
2018-09-27T12:46:28.835Z,4.83
2018-09-27T12:49:01.891Z,3.77
2018-09-27T12:51:34.720Z,4.45
2018-09-27T12:54:07.556Z,5.25
2018-09-27T12:56:40.400Z,4.70
2018-09-27T12:59:13.816Z,5.25
2018-09-27T13:01:46.681Z,4.92
2018-09-27T13:04:19.365Z,4.78
2018-09-27T13:06:52.243Z,5.80
2018-09-27T13:09:25.174Z,5.00
2018-09-27T13:11:58.281Z,5.05
2018-09-27T13:14:31.216Z,5.67
2018-09-27T13:17:04.676Z,5.22
2018-09-27T13:19:37.453Z,4.55
2018-09-27T13:22:10.128Z,5.30
2018-09-27T13:24:43.045Z,4.55
2018-09-27T13:27:16.004Z,4.03
2018-09-27T13:29:48.924Z,6.00
2018-09-27T13:32:21.718Z,4.22
2018-09-27T13:34:54.592Z,4.70
2018-09-27T13:37:28.007Z,5.00
2018-09-27T13:40:01.205Z,4.50
2018-09-27T13:42:33.996Z,3.70
2018-09-27T13:45:06.859Z,4.50
2018-09-27T13:47:39.693Z,5.53
2018-09-27T13:50:12.551Z,3.67
2018-09-27T13:52:45.266Z,4.58
2018-09-27T13:55:18.125Z,4.75
2018-09-27T13:57:50.920Z,5.08
2018-09-27T14:00:23.698Z,4.17
2018-09-27T14:02:56.629Z,5.33
2018-09-27T14:05:29.495Z,4.75
2018-09-27T14:08:02.302Z,4.55
2018-09-27T14:10:35.138Z,4.65
2018-09-27T14:13:08.033Z,5.87
2018-09-27T14:15:41.087Z,4.60
2018-09-27T14:18:13.938Z,4.17
2018-09-27T14:20:47.306Z,3.98
2018-09-27T14:23:20.780Z,6.33
2018-09-27T14:25:53.681Z,4.60
2018-09-27T14:28:26.556Z,5.17
2018-09-27T14:30:59.510Z,3.08
2018-09-27T14:33:32.232Z,5.05
2018-09-27T14:36:05.953Z,4.90
2018-09-27T14:38:39.244Z,5.08
2018-09-27T14:41:12.143Z,5.53
2018-09-27T14:43:44.993Z,6.37
2018-09-27T14:46:17.915Z,6.33
2018-09-27T14:48:50.688Z,5.75
2018-09-27T14:51:23.635Z,4.37
2018-09-27T14:53:57.440Z,4.33
2018-09-27T14:56:30.552Z,5.25
2018-09-27T14:59:04.660Z,5.62
2018-09-27T15:01:40.554Z,5.10
2018-09-27T15:04:13.560Z,5.35
2018-09-27T15:06:46.490Z,5.35
2018-09-27T15:09:19.401Z,6.08
2018-09-27T15:11:52.136Z,3.77
2018-09-27T15:14:24.772Z,4.03
2018-09-27T15:16:57.430Z,5.90
2018-09-27T15:19:30.244Z,5.35
2018-09-27T15:22:03.200Z,6.30
2018-09-27T15:24:35.902Z,4.50
2018-09-27T15:27:09.461Z,4.70
2018-09-27T15:29:43.184Z,5.30
2018-09-27T15:32:16.536Z,5.50
2018-09-27T15:34:49.365Z,4.70
2018-09-27T15:37:23.184Z,5.33
2018-09-27T15:39:55.973Z,5.22
2018-09-27T15:42:28.765Z,5.03
2018-09-27T15:45:01.628Z,5.67
2018-09-27T15:47:34.480Z,6.20
2018-09-27T15:50:07.306Z,3.15
2018-09-27T15:52:40.135Z,5.87
2018-09-27T15:55:13.077Z,4.72
2018-09-27T15:57:45.913Z,4.92
2018-09-27T16:00:20.456Z,6.00
2018-09-27T16:02:53.449Z,4.45
2018-09-27T16:05:26.315Z,7.47
2018-09-27T16:07:59.235Z,6.13
2018-09-27T16:10:32.128Z,5.27
2018-09-27T16:13:05.105Z,4.40
2018-09-27T16:15:38.394Z,6.03
2018-09-27T16:18:11.234Z,3.90
2018-09-27T16:20:44.093Z,6.97
2018-09-27T16:23:17.274Z,4.03
2018-09-27T16:25:50.281Z,5.60
2018-09-27T16:28:23.920Z,6.37
2018-09-27T16:30:58.801Z,4.45
2018-09-27T16:33:31.911Z,5.97
2018-09-27T16:36:04.744Z,6.23
2018-09-27T16:38:37.489Z,6.07
2018-09-27T16:41:10.305Z,5.90
2018-09-27T16:43:43.186Z,6.47
2018-09-27T16:46:16.112Z,5.30
2018-09-27T16:48:48.947Z,5.50
2018-09-27T16:51:22.331Z,5.80
2018-09-27T16:53:55.786Z,6.33
2018-09-27T16:56:28.831Z,7.00
2018-09-27T16:59:02.646Z,5.17
2018-09-27T17:01:36.416Z,6.30
2018-09-27T17:04:09.751Z,5.97
2018-09-27T17:06:42.685Z,5.97
2018-09-27T17:09:16.195Z,4.90
2018-09-27T17:11:49.390Z,6.57
2018-09-27T17:14:22.566Z,5.63
2018-09-27T17:16:55.539Z,6.47
2018-09-27T17:19:28.680Z,6.27
2018-09-27T17:22:01.798Z,5.07
2018-09-27T17:24:35.923Z,6.87
2018-09-27T17:27:10.636Z,6.80
2018-09-27T17:29:43.700Z,5.43
2018-09-27T17:32:18.620Z,4.93
2018-09-27T17:34:53.068Z,6.47
2018-09-27T17:37:25.928Z,7.67
2018-09-27T17:39:58.806Z,7.27
2018-09-27T17:42:31.657Z,6.70
2018-09-27T17:45:04.512Z,6.73
2018-09-27T17:47:37.425Z,7.10
2018-09-27T17:50:10.366Z,6.80
2018-09-27T17:52:43.325Z,6.13
2018-09-27T17:55:16.149Z,5.90
2018-09-27T17:57:48.965Z,3.93
2018-09-27T18:00:22.089Z,5.03
2018-09-27T18:02:55.016Z,6.20
2018-09-27T18:05:28.060Z,7.97
2018-09-27T18:08:00.924Z,7.17
2018-09-27T18:10:33.830Z,5.70
2018-09-27T18:13:06.655Z,7.07
2018-09-27T18:15:39.750Z,5.97
2018-09-27T18:18:12.664Z,5.03
2018-09-27T18:20:45.626Z,5.47
2018-09-27T18:23:18.503Z,4.93
2018-09-27T18:25:51.489Z,5.20
2018-09-27T18:28:25.049Z,4.77
2018-09-27T18:30:58.147Z,3.43
2018-09-27T18:33:31.195Z,4.27
2018-09-27T18:36:05.218Z,4.37
2018-09-27T18:38:38.196Z,4.33
2018-09-27T18:41:11.652Z,4.03
2018-09-27T18:43:44.667Z,3.43
2018-09-27T18:46:17.679Z,3.50
2018-09-27T18:48:50.556Z,4.23
2018-09-27T18:51:24.791Z,3.20
2018-09-27T18:53:59.349Z,3.57
2018-09-27T18:56:34.817Z,2.53
2018-09-27T18:59:07.903Z,3.60
2018-09-27T19:01:41.027Z,3.57
2018-09-27T19:04:13.932Z,3.07
2018-09-27T19:06:46.832Z,4.70
2018-09-27T19:09:19.868Z,2.63
2018-09-27T19:11:52.908Z,2.63
2018-09-27T19:14:25.795Z,3.50
2018-09-27T19:16:58.872Z,3.33
2018-09-27T19:19:31.684Z,3.23
2018-09-27T19:22:05.115Z,3.20
2018-09-27T19:24:38.062Z,2.37
2018-09-27T19:27:11.021Z,2.80
2018-09-27T19:29:43.807Z,2.47
2018-09-27T19:32:16.882Z,2.87
2018-09-27T19:34:49.686Z,2.33
2018-09-27T19:37:22.676Z,2.87
2018-09-27T19:39:55.642Z,2.17
2018-09-27T19:42:34.242Z,2.70
2018-09-27T19:45:08.601Z,2.20
2018-09-27T19:47:48.934Z,2.20
2018-09-27T19:50:24.377Z,2.73
2018-09-27T19:52:58.587Z,2.53
2018-09-27T19:55:32.533Z,2.00
2018-09-27T19:58:05.919Z,2.43
2018-09-27T20:00:38.718Z,2.07
2018-09-27T20:03:11.462Z,1.93
2018-09-27T20:05:44.257Z,1.47
2018-09-27T20:08:17.103Z,1.67
2018-09-27T20:10:50.033Z,1.83
2018-09-27T20:13:22.858Z,1.97
2018-09-27T20:15:55.657Z,2.77
2018-09-27T20:18:28.385Z,1.80
2018-09-27T20:21:01.168Z,2.63
2018-09-27T20:23:33.948Z,1.90
2018-09-27T20:26:06.682Z,3.17
2018-09-27T20:28:39.379Z,2.50
2018-09-27T20:31:12.117Z,2.73
2018-09-27T20:33:44.859Z,1.67
2018-09-27T20:36:17.550Z,2.40
2018-09-27T20:38:50.354Z,1.87
2018-09-27T20:41:23.184Z,1.90
2018-09-27T20:43:55.973Z,2.23
2018-09-27T20:46:28.771Z,1.83
2018-09-27T20:49:02.720Z,2.10
2018-09-27T20:51:35.470Z,2.40
2018-09-27T20:54:08.291Z,2.23
2018-09-27T20:56:41.057Z,2.30
2018-09-27T20:59:13.806Z,1.90
2018-09-27T21:01:46.566Z,1.73
2018-09-27T21:04:19.295Z,2.13
2018-09-27T21:06:52.064Z,2.13
2018-09-27T21:09:24.874Z,2.00
2018-09-27T21:11:57.584Z,1.90
2018-09-27T21:14:30.320Z,2.07
2018-09-27T21:17:03.607Z,1.37
2018-09-27T21:19:36.397Z,1.67
2018-09-27T21:22:09.162Z,2.13
2018-09-27T21:24:41.899Z,2.43
2018-09-27T21:27:14.658Z,2.50
2018-09-27T21:29:47.568Z,1.53
2018-09-27T21:32:21.252Z,1.73
2018-09-27T21:34:54.008Z,2.17
2018-09-27T21:37:26.776Z,1.97
2018-09-27T21:39:59.555Z,2.00
2018-09-27T21:42:32.336Z,1.93
2018-09-27T21:45:05.050Z,1.40
2018-09-27T21:47:37.802Z,1.73
2018-09-27T21:50:10.560Z,1.83
2018-09-27T21:52:43.305Z,2.33
2018-09-27T21:55:16.151Z,1.97
2018-09-27T21:57:48.915Z,2.53
2018-09-27T22:00:21.715Z,2.00
2018-09-27T22:02:54.495Z,1.37
2018-09-27T22:05:27.284Z,2.53
2018-09-27T22:08:00.076Z,2.30
2018-09-27T22:10:32.838Z,1.73
2018-09-27T22:13:05.703Z,1.83
2018-09-27T22:15:38.653Z,1.60
2018-09-27T22:18:11.407Z,1.47
2018-09-27T22:20:44.175Z,2.00
2018-09-27T22:23:16.914Z,2.43
2018-09-27T22:25:49.775Z,3.23
2018-09-27T22:28:23.094Z,1.57
2018-09-27T22:30:55.887Z,1.93
2018-09-27T22:33:28.747Z,1.80
2018-09-27T22:36:01.537Z,2.77
2018-09-27T22:38:34.340Z,1.50
2018-09-27T22:41:07.199Z,1.80
2018-09-27T22:43:39.941Z,1.90
2018-09-27T22:46:12.727Z,2.33
2018-09-27T22:48:45.449Z,2.20
2018-09-27T22:51:18.179Z,2.00
2018-09-27T22:53:50.874Z,2.10
2018-09-27T22:56:24.292Z,2.07
2018-09-27T22:58:57.061Z,2.57
2018-09-27T23:01:29.830Z,1.70
2018-09-27T23:04:03.063Z,1.80
2018-09-27T23:06:35.900Z,1.33
2018-09-27T23:09:08.717Z,2.07
2018-09-27T23:11:41.606Z,1.30
2018-09-27T23:14:14.378Z,1.27
2018-09-27T23:16:47.211Z,2.60
2018-09-27T23:19:19.992Z,2.00
2018-09-27T23:21:52.904Z,1.47
2018-09-27T23:24:25.696Z,1.73
2018-09-27T23:26:58.474Z,1.67
2018-09-27T23:29:31.212Z,1.80
2018-09-27T23:32:04.006Z,2.23
2018-09-27T23:34:36.750Z,1.67
2018-09-27T23:37:09.528Z,1.70
2018-09-27T23:39:42.320Z,1.33
2018-09-27T23:42:15.133Z,1.57
2018-09-27T23:44:47.845Z,1.70
2018-09-27T23:47:20.578Z,2.20
2018-09-27T23:49:53.364Z,2.43
2018-09-27T23:52:26.166Z,2.03
2018-09-27T23:54:58.898Z,1.57
2018-09-27T23:57:31.649Z,1.83
